sensor_id;sensor_type;location;lat;lon;timestamp;P1;durP1;ratioP1;P2;durP2;ratioP2
12088;SDS011;6107;49.078;8.578;2022-08-25T00:01:00;5.10;;;3.30;;
12088;SDS011;6107;49.078;8.578;2022-08-25T00:03:26;3.30;;;2.97;;
12088;SDS011;6107;49.078;8.578;2022-08-25T00:05:51;3.72;;;3.25;;
12088;SDS011;6107;49.078;8.578;2022-08-25T00:08:18;4.18;;;3.10;;
12088;SDS011;6107;49.078;8.578;2022-08-25T00:10:43;3.65;;;3.28;;
12088;SDS011;6107;49.078;8.578;2022-08-25T00:13:09;3.88;;;3.17;;
12088;SDS011;6107;49.078;8.578;2022-08-25T00:15:35;4.45;;;3.00;;
12088;SDS011;6107;49.078;8.578;2022-08-25T00:18:02;4.80;;;3.20;;
12088;SDS011;6107;49.078;8.578;2022-08-25T00:20:29;5.03;;;3.10;;
12088;SDS011;6107;49.078;8.578;2022-08-25T00:22:55;4.40;;;3.10;;
12088;SDS011;6107;49.078;8.578;2022-08-25T00:25:21;4.15;;;3.15;;
12088;SDS011;6107;49.078;8.578;2022-08-25T00:27:48;3.63;;;2.92;;
12088;SDS011;6107;49.078;8.578;2022-08-25T00:30:15;5.00;;;3.50;;
12088;SDS011;6107;49.078;8.578;2022-08-25T00:32:41;3.78;;;3.10;;
12088;SDS011;6107;49.078;8.578;2022-08-25T00:35:07;4.32;;;3.05;;
12088;SDS011;6107;49.078;8.578;2022-08-25T00:37:33;3.08;;;2.78;;
12088;SDS011;6107;49.078;8.578;2022-08-25T00:40:00;3.70;;;2.90;;
12088;SDS011;6107;49.078;8.578;2022-08-25T00:42:25;3.47;;;2.88;;
12088;SDS011;6107;49.078;8.578;2022-08-25T00:44:51;3.35;;;2.97;;
12088;SDS011;6107;49.078;8.578;2022-08-25T00:47:17;3.83;;;3.05;;
12088;SDS011;6107;49.078;8.578;2022-08-25T00:49:44;4.07;;;3.28;;
12088;SDS011;6107;49.078;8.578;2022-08-25T00:52:13;3.10;;;2.80;;
12088;SDS011;6107;49.078;8.578;2022-08-25T00:54:45;5.25;;;2.80;;
12088;SDS011;6107;49.078;8.578;2022-08-25T00:57:12;4.97;;;3.03;;
12088;SDS011;6107;49.078;8.578;2022-08-25T00:59:41;3.72;;;2.92;;
12088;SDS011;6107;49.078;8.578;2022-08-25T01:02:08;4.07;;;2.80;;
12088;SDS011;6107;49.078;8.578;2022-08-25T01:04:34;4.20;;;3.03;;
12088;SDS011;6107;49.078;8.578;2022-08-25T01:07:01;4.50;;;3.40;;
12088;SDS011;6107;49.078;8.578;2022-08-25T01:09:28;4.90;;;3.20;;
12088;SDS011;6107;49.078;8.578;2022-08-25T01:11:56;6.63;;;3.00;;
12088;SDS011;6107;49.078;8.578;2022-08-25T01:14:23;4.95;;;3.50;;
12088;SDS011;6107;49.078;8.578;2022-08-25T01:16:50;3.75;;;3.10;;
12088;SDS011;6107;49.078;8.578;2022-08-25T01:19:17;3.63;;;2.95;;
12088;SDS011;6107;49.078;8.578;2022-08-25T01:21:52;5.63;;;3.47;;
12088;SDS011;6107;49.078;8.578;2022-08-25T01:24:21;3.58;;;2.92;;
12088;SDS011;6107;49.078;8.578;2022-08-25T01:27:07;5.00;;;3.03;;
12088;SDS011;6107;49.078;8.578;2022-08-25T01:29:33;3.45;;;3.15;;
12088;SDS011;6107;49.078;8.578;2022-08-25T01:32:01;4.75;;;3.65;;
12088;SDS011;6107;49.078;8.578;2022-08-25T01:34:31;4.72;;;3.13;;
12088;SDS011;6107;49.078;8.578;2022-08-25T01:36:59;4.05;;;3.20;;
12088;SDS011;6107;49.078;8.578;2022-08-25T01:39:25;4.35;;;3.33;;
12088;SDS011;6107;49.078;8.578;2022-08-25T01:41:58;3.47;;;3.00;;
12088;SDS011;6107;49.078;8.578;2022-08-25T01:44:30;3.83;;;3.20;;
12088;SDS011;6107;49.078;8.578;2022-08-25T01:46:57;5.32;;;3.50;;
12088;SDS011;6107;49.078;8.578;2022-08-25T01:49:23;4.15;;;3.75;;
12088;SDS011;6107;49.078;8.578;2022-08-25T01:51:54;4.13;;;3.20;;
12088;SDS011;6107;49.078;8.578;2022-08-25T01:54:25;3.30;;;3.00;;
12088;SDS011;6107;49.078;8.578;2022-08-25T01:56:50;3.58;;;3.22;;
12088;SDS011;6107;49.078;8.578;2022-08-25T01:59:17;5.45;;;3.72;;
12088;SDS011;6107;49.078;8.578;2022-08-25T02:01:43;4.22;;;3.40;;
12088;SDS011;6107;49.078;8.578;2022-08-25T02:04:09;4.78;;;3.70;;
12088;SDS011;6107;49.078;8.578;2022-08-25T02:06:36;3.67;;;3.28;;
12088;SDS011;6107;49.078;8.578;2022-08-25T02:09:07;4.65;;;3.70;;
12088;SDS011;6107;49.078;8.578;2022-08-25T02:11:37;4.65;;;3.90;;
12088;SDS011;6107;49.078;8.578;2022-08-25T02:14:06;4.55;;;3.97;;
12088;SDS011;6107;49.078;8.578;2022-08-25T02:16:33;4.43;;;4.03;;
12088;SDS011;6107;49.078;8.578;2022-08-25T02:19:01;7.40;;;4.18;;
12088;SDS011;6107;49.078;8.578;2022-08-25T02:21:30;4.88;;;4.07;;
12088;SDS011;6107;49.078;8.578;2022-08-25T02:23:56;6.78;;;4.50;;
12088;SDS011;6107;49.078;8.578;2022-08-25T02:26:22;7.80;;;4.47;;
12088;SDS011;6107;49.078;8.578;2022-08-25T02:28:48;6.55;;;4.18;;
12088;SDS011;6107;49.078;8.578;2022-08-25T02:31:15;5.68;;;4.22;;
12088;SDS011;6107;49.078;8.578;2022-08-25T02:33:41;7.13;;;4.47;;
12088;SDS011;6107;49.078;8.578;2022-08-25T02:36:07;6.38;;;4.65;;
12088;SDS011;6107;49.078;8.578;2022-08-25T02:38:33;5.22;;;4.47;;
12088;SDS011;6107;49.078;8.578;2022-08-25T02:40:59;5.72;;;4.60;;
12088;SDS011;6107;49.078;8.578;2022-08-25T02:43:31;5.97;;;4.40;;
12088;SDS011;6107;49.078;8.578;2022-08-25T02:45:57;5.47;;;4.30;;
12088;SDS011;6107;49.078;8.578;2022-08-25T02:48:23;7.45;;;4.57;;
12088;SDS011;6107;49.078;8.578;2022-08-25T02:50:49;6.60;;;5.10;;
12088;SDS011;6107;49.078;8.578;2022-08-25T02:53:17;7.80;;;5.22;;
12088;SDS011;6107;49.078;8.578;2022-08-25T02:55:43;6.15;;;4.60;;
12088;SDS011;6107;49.078;8.578;2022-08-25T02:58:09;6.82;;;5.22;;
12088;SDS011;6107;49.078;8.578;2022-08-25T03:00:35;5.55;;;4.82;;
12088;SDS011;6107;49.078;8.578;2022-08-25T03:03:01;5.95;;;5.03;;
12088;SDS011;6107;49.078;8.578;2022-08-25T03:05:26;7.20;;;5.00;;
12088;SDS011;6107;49.078;8.578;2022-08-25T03:07:52;8.48;;;4.93;;
12088;SDS011;6107;49.078;8.578;2022-08-25T03:12:45;5.75;;;4.63;;
12088;SDS011;6107;49.078;8.578;2022-08-25T03:15:12;6.50;;;5.00;;
12088;SDS011;6107;49.078;8.578;2022-08-25T03:17:40;7.30;;;5.30;;
12088;SDS011;6107;49.078;8.578;2022-08-25T03:20:07;7.40;;;5.15;;
12088;SDS011;6107;49.078;8.578;2022-08-25T03:22:33;8.05;;;5.35;;
12088;SDS011;6107;49.078;8.578;2022-08-25T03:25:00;6.65;;;4.95;;
12088;SDS011;6107;49.078;8.578;2022-08-25T03:27:45;6.15;;;5.15;;
12088;SDS011;6107;49.078;8.578;2022-08-25T03:30:11;6.82;;;5.18;;
12088;SDS011;6107;49.078;8.578;2022-08-25T03:32:37;6.68;;;5.25;;
12088;SDS011;6107;49.078;8.578;2022-08-25T03:35:03;7.25;;;5.28;;
12088;SDS011;6107;49.078;8.578;2022-08-25T03:37:29;9.65;;;5.00;;
12088;SDS011;6107;49.078;8.578;2022-08-25T03:39:55;7.13;;;5.45;;
12088;SDS011;6107;49.078;8.578;2022-08-25T03:42:20;8.40;;;5.13;;
12088;SDS011;6107;49.078;8.578;2022-08-25T03:44:46;6.25;;;5.05;;
12088;SDS011;6107;49.078;8.578;2022-08-25T03:47:11;8.35;;;5.60;;
12088;SDS011;6107;49.078;8.578;2022-08-25T03:49:37;7.82;;;4.97;;
12088;SDS011;6107;49.078;8.578;2022-08-25T03:52:02;8.50;;;5.28;;
12088;SDS011;6107;49.078;8.578;2022-08-25T03:54:28;8.07;;;5.20;;
12088;SDS011;6107;49.078;8.578;2022-08-25T03:56:53;5.93;;;4.68;;
12088;SDS011;6107;49.078;8.578;2022-08-25T03:59:19;5.88;;;4.80;;
12088;SDS011;6107;49.078;8.578;2022-08-25T04:01:45;5.68;;;4.80;;
12088;SDS011;6107;49.078;8.578;2022-08-25T04:04:12;6.78;;;5.13;;
12088;SDS011;6107;49.078;8.578;2022-08-25T04:06:39;7.40;;;5.20;;
12088;SDS011;6107;49.078;8.578;2022-08-25T04:09:05;6.55;;;5.15;;
12088;SDS011;6107;49.078;8.578;2022-08-25T04:11:31;6.75;;;5.15;;
12088;SDS011;6107;49.078;8.578;2022-08-25T04:13:58;6.43;;;5.20;;
12088;SDS011;6107;49.078;8.578;2022-08-25T04:16:27;7.22;;;4.82;;
12088;SDS011;6107;49.078;8.578;2022-08-25T04:18:55;5.68;;;4.80;;
12088;SDS011;6107;49.078;8.578;2022-08-25T04:21:22;6.82;;;4.93;;
12088;SDS011;6107;49.078;8.578;2022-08-25T04:23:49;8.60;;;5.43;;
12088;SDS011;6107;49.078;8.578;2022-08-25T04:26:24;9.00;;;5.47;;
12088;SDS011;6107;49.078;8.578;2022-08-25T04:28:52;5.75;;;4.90;;
12088;SDS011;6107;49.078;8.578;2022-08-25T04:31:20;9.65;;;5.38;;
12088;SDS011;6107;49.078;8.578;2022-08-25T04:33:46;6.20;;;4.88;;
12088;SDS011;6107;49.078;8.578;2022-08-25T04:36:12;8.25;;;5.25;;
12088;SDS011;6107;49.078;8.578;2022-08-25T04:38:39;10.35;;;5.88;;
12088;SDS011;6107;49.078;8.578;2022-08-25T04:41:06;7.40;;;5.82;;
12088;SDS011;6107;49.078;8.578;2022-08-25T04:43:34;8.15;;;5.82;;
12088;SDS011;6107;49.078;8.578;2022-08-25T04:46:05;7.45;;;5.75;;
12088;SDS011;6107;49.078;8.578;2022-08-25T04:48:38;5.78;;;4.88;;
12088;SDS011;6107;49.078;8.578;2022-08-25T04:51:09;9.95;;;5.10;;
12088;SDS011;6107;49.078;8.578;2022-08-25T04:53:37;6.82;;;5.10;;
12088;SDS011;6107;49.078;8.578;2022-08-25T04:56:04;6.95;;;5.07;;
12088;SDS011;6107;49.078;8.578;2022-08-25T04:58:31;9.15;;;5.47;;
12088;SDS011;6107;49.078;8.578;2022-08-25T05:01:00;6.20;;;4.95;;
12088;SDS011;6107;49.078;8.578;2022-08-25T05:03:28;8.95;;;6.10;;
12088;SDS011;6107;49.078;8.578;2022-08-25T05:05:55;7.38;;;5.60;;
12088;SDS011;6107;49.078;8.578;2022-08-25T05:08:21;10.52;;;5.75;;
12088;SDS011;6107;49.078;8.578;2022-08-25T05:10:46;7.93;;;5.60;;
12088;SDS011;6107;49.078;8.578;2022-08-25T05:13:12;6.93;;;5.55;;
12088;SDS011;6107;49.078;8.578;2022-08-25T05:15:37;9.77;;;5.50;;
12088;SDS011;6107;49.078;8.578;2022-08-25T05:18:15;6.93;;;5.20;;
12088;SDS011;6107;49.078;8.578;2022-08-25T05:20:42;8.35;;;5.88;;
12088;SDS011;6107;49.078;8.578;2022-08-25T05:23:08;7.93;;;6.00;;
12088;SDS011;6107;49.078;8.578;2022-08-25T05:25:34;8.18;;;5.75;;
12088;SDS011;6107;49.078;8.578;2022-08-25T05:27:59;12.30;;;6.07;;
12088;SDS011;6107;49.078;8.578;2022-08-25T05:30:25;9.13;;;6.90;;
12088;SDS011;6107;49.078;8.578;2022-08-25T05:32:50;9.70;;;6.32;;
12088;SDS011;6107;49.078;8.578;2022-08-25T05:35:16;8.38;;;6.43;;
12088;SDS011;6107;49.078;8.578;2022-08-25T05:37:43;8.13;;;6.50;;
12088;SDS011;6107;49.078;8.578;2022-08-25T05:40:08;8.55;;;6.32;;
12088;SDS011;6107;49.078;8.578;2022-08-25T05:42:34;10.07;;;6.70;;
12088;SDS011;6107;49.078;8.578;2022-08-25T05:45:01;9.82;;;6.03;;
12088;SDS011;6107;49.078;8.578;2022-08-25T05:47:27;10.70;;;6.50;;
12088;SDS011;6107;49.078;8.578;2022-08-25T05:49:53;12.00;;;6.70;;
12088;SDS011;6107;49.078;8.578;2022-08-25T05:52:18;9.20;;;6.38;;
12088;SDS011;6107;49.078;8.578;2022-08-25T05:54:44;8.55;;;6.30;;
12088;SDS011;6107;49.078;8.578;2022-08-25T05:57:10;9.05;;;6.65;;
12088;SDS011;6107;49.078;8.578;2022-08-25T05:59:36;10.00;;;6.72;;
12088;SDS011;6107;49.078;8.578;2022-08-25T06:02:01;9.90;;;7.00;;
12088;SDS011;6107;49.078;8.578;2022-08-25T06:04:46;8.23;;;6.20;;
12088;SDS011;6107;49.078;8.578;2022-08-25T06:07:11;8.60;;;6.78;;
12088;SDS011;6107;49.078;8.578;2022-08-25T06:09:38;11.13;;;6.88;;
12088;SDS011;6107;49.078;8.578;2022-08-25T06:12:04;12.63;;;7.63;;
12088;SDS011;6107;49.078;8.578;2022-08-25T06:14:30;12.40;;;6.90;;
12088;SDS011;6107;49.078;8.578;2022-08-25T06:16:55;10.35;;;6.38;;
12088;SDS011;6107;49.078;8.578;2022-08-25T06:19:21;9.63;;;7.00;;
12088;SDS011;6107;49.078;8.578;2022-08-25T06:21:47;10.43;;;6.78;;
12088;SDS011;6107;49.078;8.578;2022-08-25T06:24:13;9.65;;;7.20;;
12088;SDS011;6107;49.078;8.578;2022-08-25T06:26:39;9.32;;;7.10;;
12088;SDS011;6107;49.078;8.578;2022-08-25T06:29:04;9.88;;;6.90;;
12088;SDS011;6107;49.078;8.578;2022-08-25T06:31:30;9.85;;;6.50;;
12088;SDS011;6107;49.078;8.578;2022-08-25T06:33:55;11.70;;;7.00;;
12088;SDS011;6107;49.078;8.578;2022-08-25T06:36:22;10.13;;;6.97;;
12088;SDS011;6107;49.078;8.578;2022-08-25T06:38:48;9.40;;;7.15;;
12088;SDS011;6107;49.078;8.578;2022-08-25T06:41:13;9.13;;;7.03;;
12088;SDS011;6107;49.078;8.578;2022-08-25T06:43:41;8.57;;;7.05;;
12088;SDS011;6107;49.078;8.578;2022-08-25T06:46:07;8.48;;;6.88;;
12088;SDS011;6107;49.078;8.578;2022-08-25T06:48:37;10.30;;;7.65;;
12088;SDS011;6107;49.078;8.578;2022-08-25T06:51:04;10.10;;;7.40;;
12088;SDS011;6107;49.078;8.578;2022-08-25T06:53:34;10.95;;;7.45;;
12088;SDS011;6107;49.078;8.578;2022-08-25T06:55:59;9.85;;;7.28;;
12088;SDS011;6107;49.078;8.578;2022-08-25T06:58:25;12.43;;;7.30;;
12088;SDS011;6107;49.078;8.578;2022-08-25T07:00:51;9.85;;;7.47;;
12088;SDS011;6107;49.078;8.578;2022-08-25T07:03:17;10.80;;;7.20;;
12088;SDS011;6107;49.078;8.578;2022-08-25T07:05:50;10.98;;;7.20;;
12088;SDS011;6107;49.078;8.578;2022-08-25T07:08:16;11.40;;;7.57;;
12088;SDS011;6107;49.078;8.578;2022-08-25T07:10:43;9.35;;;7.38;;
12088;SDS011;6107;49.078;8.578;2022-08-25T07:13:08;11.30;;;7.68;;
12088;SDS011;6107;49.078;8.578;2022-08-25T07:15:36;9.40;;;7.25;;
12088;SDS011;6107;49.078;8.578;2022-08-25T07:18:05;10.45;;;7.22;;
12088;SDS011;6107;49.078;8.578;2022-08-25T07:20:32;9.20;;;7.10;;
12088;SDS011;6107;49.078;8.578;2022-08-25T07:22:59;9.27;;;7.07;;
12088;SDS011;6107;49.078;8.578;2022-08-25T07:25:25;10.40;;;7.75;;
12088;SDS011;6107;49.078;8.578;2022-08-25T07:27:51;9.38;;;7.05;;
12088;SDS011;6107;49.078;8.578;2022-08-25T07:30:17;8.80;;;7.15;;
12088;SDS011;6107;49.078;8.578;2022-08-25T07:32:42;9.05;;;7.47;;
12088;SDS011;6107;49.078;8.578;2022-08-25T07:35:08;9.80;;;7.18;;
12088;SDS011;6107;49.078;8.578;2022-08-25T07:37:41;9.40;;;7.07;;
12088;SDS011;6107;49.078;8.578;2022-08-25T07:40:09;10.77;;;6.60;;
12088;SDS011;6107;49.078;8.578;2022-08-25T07:42:36;10.63;;;6.78;;
12088;SDS011;6107;49.078;8.578;2022-08-25T07:45:03;8.23;;;6.55;;
12088;SDS011;6107;49.078;8.578;2022-08-25T07:47:30;8.77;;;6.88;;
12088;SDS011;6107;49.078;8.578;2022-08-25T07:49:56;7.53;;;6.60;;
12088;SDS011;6107;49.078;8.578;2022-08-25T07:52:21;8.45;;;6.57;;
12088;SDS011;6107;49.078;8.578;2022-08-25T07:54:47;8.13;;;6.72;;
12088;SDS011;6107;49.078;8.578;2022-08-25T07:57:12;9.00;;;6.43;;
12088;SDS011;6107;49.078;8.578;2022-08-25T07:59:41;7.78;;;6.32;;
12088;SDS011;6107;49.078;8.578;2022-08-25T08:02:11;9.02;;;6.47;;
12088;SDS011;6107;49.078;8.578;2022-08-25T08:04:37;10.73;;;6.75;;
12088;SDS011;6107;49.078;8.578;2022-08-25T08:07:03;9.90;;;6.90;;
12088;SDS011;6107;49.078;8.578;2022-08-25T08:09:29;8.85;;;6.72;;
12088;SDS011;6107;49.078;8.578;2022-08-25T08:11:55;9.20;;;6.13;;
12088;SDS011;6107;49.078;8.578;2022-08-25T08:14:21;8.07;;;6.15;;
12088;SDS011;6107;49.078;8.578;2022-08-25T08:16:47;7.78;;;6.30;;
12088;SDS011;6107;49.078;8.578;2022-08-25T08:19:13;9.80;;;6.70;;
12088;SDS011;6107;49.078;8.578;2022-08-25T08:21:39;8.32;;;5.88;;
12088;SDS011;6107;49.078;8.578;2022-08-25T08:24:06;7.75;;;6.05;;
12088;SDS011;6107;49.078;8.578;2022-08-25T08:26:32;9.82;;;6.25;;
12088;SDS011;6107;49.078;8.578;2022-08-25T08:28:58;10.10;;;6.00;;
12088;SDS011;6107;49.078;8.578;2022-08-25T08:31:25;7.47;;;5.88;;
12088;SDS011;6107;49.078;8.578;2022-08-25T08:33:52;7.97;;;5.97;;
12088;SDS011;6107;49.078;8.578;2022-08-25T08:36:19;8.40;;;6.40;;
12088;SDS011;6107;49.078;8.578;2022-08-25T08:38:45;9.25;;;6.07;;
12088;SDS011;6107;49.078;8.578;2022-08-25T08:44:25;6.43;;;5.50;;
12088;SDS011;6107;49.078;8.578;2022-08-25T08:47:45;8.57;;;5.45;;
12088;SDS011;6107;49.078;8.578;2022-08-25T08:58:27;6.72;;;5.38;;
12088;SDS011;6107;49.078;8.578;2022-08-25T09:01:03;6.78;;;5.57;;
12088;SDS011;6107;49.078;8.578;2022-08-25T09:03:33;8.57;;;5.47;;
12088;SDS011;6107;49.078;8.578;2022-08-25T09:06:12;6.30;;;5.60;;
12088;SDS011;6107;49.078;8.578;2022-08-25T09:08:45;8.82;;;6.25;;
12088;SDS011;6107;49.078;8.578;2022-08-25T09:14:04;9.32;;;5.57;;
12088;SDS011;6107;49.078;8.578;2022-08-25T09:25:08;8.43;;;5.55;;
12088;SDS011;6107;49.078;8.578;2022-08-25T09:28:08;6.10;;;5.50;;
12088;SDS011;6107;49.078;8.578;2022-08-25T09:31:04;5.88;;;5.25;;
12088;SDS011;6107;49.078;8.578;2022-08-25T09:33:35;6.28;;;5.32;;
12088;SDS011;6107;49.078;8.578;2022-08-25T09:36:01;6.70;;;5.05;;
12088;SDS011;6107;49.078;8.578;2022-08-25T09:38:28;7.78;;;5.40;;
12088;SDS011;6107;49.078;8.578;2022-08-25T09:40:56;6.38;;;5.43;;
12088;SDS011;6107;49.078;8.578;2022-08-25T09:46:09;7.50;;;4.93;;
12088;SDS011;6107;49.078;8.578;2022-08-25T09:48:46;6.63;;;5.00;;
12088;SDS011;6107;49.078;8.578;2022-08-25T09:56:14;6.82;;;4.55;;
12088;SDS011;6107;49.078;8.578;2022-08-25T09:58:43;6.72;;;5.03;;
12088;SDS011;6107;49.078;8.578;2022-08-25T10:01:14;5.65;;;4.88;;
12088;SDS011;6107;49.078;8.578;2022-08-25T10:03:55;6.20;;;4.63;;
12088;SDS011;6107;49.078;8.578;2022-08-25T10:06:21;6.50;;;4.97;;
12088;SDS011;6107;49.078;8.578;2022-08-25T10:11:14;5.25;;;4.60;;
12088;SDS011;6107;49.078;8.578;2022-08-25T10:14:07;6.82;;;5.10;;
12088;SDS011;6107;49.078;8.578;2022-08-25T10:16:39;5.38;;;4.85;;
12088;SDS011;6107;49.078;8.578;2022-08-25T10:19:06;7.57;;;5.00;;
12088;SDS011;6107;49.078;8.578;2022-08-25T10:21:38;7.70;;;4.72;;
12088;SDS011;6107;49.078;8.578;2022-08-25T10:24:07;5.97;;;5.03;;
12088;SDS011;6107;49.078;8.578;2022-08-25T10:26:41;7.68;;;5.22;;
12088;SDS011;6107;49.078;8.578;2022-08-25T10:32:27;6.90;;;5.10;;
12088;SDS011;6107;49.078;8.578;2022-08-25T10:34:58;7.18;;;5.28;;
12088;SDS011;6107;49.078;8.578;2022-08-25T10:37:43;5.68;;;4.95;;
12088;SDS011;6107;49.078;8.578;2022-08-25T10:40:34;6.45;;;5.00;;
12088;SDS011;6107;49.078;8.578;2022-08-25T10:43:24;7.40;;;5.25;;
12088;SDS011;6107;49.078;8.578;2022-08-25T10:46:16;6.85;;;4.70;;
12088;SDS011;6107;49.078;8.578;2022-08-25T10:51:34;7.18;;;4.85;;
12088;SDS011;6107;49.078;8.578;2022-08-25T10:59:46;8.05;;;5.43;;
12088;SDS011;6107;49.078;8.578;2022-08-25T11:05:32;6.57;;;5.00;;
12088;SDS011;6107;49.078;8.578;2022-08-25T11:08:21;5.88;;;5.00;;
12088;SDS011;6107;49.078;8.578;2022-08-25T11:11:09;6.63;;;4.65;;
12088;SDS011;6107;49.078;8.578;2022-08-25T11:14:03;6.63;;;5.10;;
12088;SDS011;6107;49.078;8.578;2022-08-25T11:19:08;5.55;;;5.05;;
12088;SDS011;6107;49.078;8.578;2022-08-25T11:22:03;8.00;;;5.20;;
12088;SDS011;6107;49.078;8.578;2022-08-25T11:24:33;6.65;;;5.10;;
12088;SDS011;6107;49.078;8.578;2022-08-25T11:27:11;6.07;;;5.47;;
12088;SDS011;6107;49.078;8.578;2022-08-25T11:30:09;8.20;;;5.10;;
12088;SDS011;6107;49.078;8.578;2022-08-25T11:32:38;6.07;;;4.72;;
12088;SDS011;6107;49.078;8.578;2022-08-25T11:35:06;5.18;;;4.68;;
12088;SDS011;6107;49.078;8.578;2022-08-25T11:37:34;5.00;;;4.50;;
12088;SDS011;6107;49.078;8.578;2022-08-25T11:40:12;6.40;;;5.25;;
12088;SDS011;6107;49.078;8.578;2022-08-25T11:48:08;6.88;;;5.00;;
12088;SDS011;6107;49.078;8.578;2022-08-25T11:50:57;5.30;;;4.80;;
12088;SDS011;6107;49.078;8.578;2022-08-25T11:53:45;5.95;;;4.82;;
12088;SDS011;6107;49.078;8.578;2022-08-25T11:58:56;5.82;;;4.85;;
12088;SDS011;6107;49.078;8.578;2022-08-25T12:17:41;6.25;;;5.50;;
12088;SDS011;6107;49.078;8.578;2022-08-25T12:20:07;6.93;;;5.07;;
12088;SDS011;6107;49.078;8.578;2022-08-25T12:25:07;6.43;;;4.90;;
12088;SDS011;6107;49.078;8.578;2022-08-25T12:28:02;5.78;;;4.70;;
12088;SDS011;6107;49.078;8.578;2022-08-25T12:30:45;6.78;;;4.97;;
12088;SDS011;6107;49.078;8.578;2022-08-25T12:33:38;5.00;;;4.50;;
12088;SDS011;6107;49.078;8.578;2022-08-25T12:36:27;6.32;;;5.22;;
12088;SDS011;6107;49.078;8.578;2022-08-25T12:39:06;7.05;;;5.10;;
12088;SDS011;6107;49.078;8.578;2022-08-25T12:41:50;5.20;;;4.65;;
12088;SDS011;6107;49.078;8.578;2022-08-25T12:44:31;5.68;;;4.60;;
12088;SDS011;6107;49.078;8.578;2022-08-25T12:49:48;4.65;;;4.18;;
12088;SDS011;6107;49.078;8.578;2022-08-25T12:52:15;5.20;;;4.35;;
12088;SDS011;6107;49.078;8.578;2022-08-25T12:59:59;5.45;;;4.60;;
12088;SDS011;6107;49.078;8.578;2022-08-25T13:02:50;5.28;;;4.28;;
12088;SDS011;6107;49.078;8.578;2022-08-25T13:11:51;5.43;;;4.10;;
12088;SDS011;6107;49.078;8.578;2022-08-25T13:16:59;4.13;;;3.72;;
12088;SDS011;6107;49.078;8.578;2022-08-25T13:19:25;4.80;;;4.40;;
12088;SDS011;6107;49.078;8.578;2022-08-25T13:21:51;4.88;;;4.20;;
12088;SDS011;6107;49.078;8.578;2022-08-25T13:24:27;5.55;;;4.60;;
12088;SDS011;6107;49.078;8.578;2022-08-25T13:26:56;4.43;;;4.03;;
12088;SDS011;6107;49.078;8.578;2022-08-25T13:29:26;5.43;;;4.13;;
12088;SDS011;6107;49.078;8.578;2022-08-25T13:31:56;5.75;;;4.18;;
12088;SDS011;6107;49.078;8.578;2022-08-25T13:34:28;4.45;;;4.00;;
12088;SDS011;6107;49.078;8.578;2022-08-25T13:36:56;5.03;;;3.97;;
12088;SDS011;6107;49.078;8.578;2022-08-25T13:39:47;5.68;;;4.20;;
12088;SDS011;6107;49.078;8.578;2022-08-25T13:42:13;4.38;;;3.80;;
12088;SDS011;6107;49.078;8.578;2022-08-25T13:44:40;5.78;;;4.13;;
12088;SDS011;6107;49.078;8.578;2022-08-25T13:47:09;4.63;;;3.83;;
12088;SDS011;6107;49.078;8.578;2022-08-25T13:49:37;4.35;;;3.65;;
12088;SDS011;6107;49.078;8.578;2022-08-25T13:52:05;5.90;;;4.15;;
12088;SDS011;6107;49.078;8.578;2022-08-25T13:54:36;4.30;;;3.70;;
12088;SDS011;6107;49.078;8.578;2022-08-25T13:57:06;4.22;;;3.78;;
12088;SDS011;6107;49.078;8.578;2022-08-25T13:59:50;4.85;;;4.22;;
12088;SDS011;6107;49.078;8.578;2022-08-25T14:02:38;4.38;;;3.97;;
12088;SDS011;6107;49.078;8.578;2022-08-25T14:05:15;6.63;;;3.65;;
12088;SDS011;6107;49.078;8.578;2022-08-25T14:07:53;3.80;;;3.50;;
12088;SDS011;6107;49.078;8.578;2022-08-25T14:10:38;4.65;;;3.70;;
12088;SDS011;6107;49.078;8.578;2022-08-25T14:15:52;6.40;;;4.00;;
12088;SDS011;6107;49.078;8.578;2022-08-25T14:18:19;4.72;;;3.60;;
12088;SDS011;6107;49.078;8.578;2022-08-25T14:20:50;4.40;;;4.00;;
12088;SDS011;6107;49.078;8.578;2022-08-25T14:23:19;4.10;;;3.70;;
12088;SDS011;6107;49.078;8.578;2022-08-25T14:25:48;5.25;;;4.00;;
12088;SDS011;6107;49.078;8.578;2022-08-25T14:28:16;5.07;;;3.90;;
12088;SDS011;6107;49.078;8.578;2022-08-25T14:31:05;4.70;;;3.58;;
12088;SDS011;6107;49.078;8.578;2022-08-25T14:33:33;4.72;;;3.67;;
12088;SDS011;6107;49.078;8.578;2022-08-25T14:36:02;5.10;;;3.88;;
12088;SDS011;6107;49.078;8.578;2022-08-25T14:38:29;4.68;;;4.28;;
12088;SDS011;6107;49.078;8.578;2022-08-25T14:40:54;4.63;;;3.95;;
12088;SDS011;6107;49.078;8.578;2022-08-25T14:43:20;4.30;;;3.83;;
12088;SDS011;6107;49.078;8.578;2022-08-25T14:45:46;4.22;;;3.83;;
12088;SDS011;6107;49.078;8.578;2022-08-25T14:48:23;4.35;;;3.95;;
12088;SDS011;6107;49.078;8.578;2022-08-25T14:50:51;4.47;;;4.05;;
12088;SDS011;6107;49.078;8.578;2022-08-25T14:53:18;4.85;;;4.00;;
12088;SDS011;6107;49.078;8.578;2022-08-25T14:55:44;5.07;;;3.80;;
12088;SDS011;6107;49.078;8.578;2022-08-25T14:58:10;3.60;;;3.17;;
12088;SDS011;6107;49.078;8.578;2022-08-25T15:00:42;5.15;;;3.83;;
12088;SDS011;6107;49.078;8.578;2022-08-25T15:03:11;4.00;;;3.70;;
12088;SDS011;6107;49.078;8.578;2022-08-25T15:05:39;3.80;;;3.50;;
12088;SDS011;6107;49.078;8.578;2022-08-25T15:08:05;5.40;;;3.58;;
12088;SDS011;6107;49.078;8.578;2022-08-25T15:10:49;5.70;;;3.70;;
12088;SDS011;6107;49.078;8.578;2022-08-25T15:13:15;3.63;;;3.28;;
12088;SDS011;6107;49.078;8.578;2022-08-25T15:15:42;4.75;;;3.40;;
12088;SDS011;6107;49.078;8.578;2022-08-25T15:18:08;4.22;;;3.40;;
12088;SDS011;6107;49.078;8.578;2022-08-25T15:20:34;4.30;;;3.58;;
12088;SDS011;6107;49.078;8.578;2022-08-25T15:23:00;4.15;;;3.55;;
12088;SDS011;6107;49.078;8.578;2022-08-25T15:25:25;3.92;;;3.55;;
12088;SDS011;6107;49.078;8.578;2022-08-25T15:27:51;5.10;;;3.72;;
12088;SDS011;6107;49.078;8.578;2022-08-25T15:30:17;4.32;;;3.38;;
12088;SDS011;6107;49.078;8.578;2022-08-25T15:32:43;4.35;;;3.58;;
12088;SDS011;6107;49.078;8.578;2022-08-25T15:35:08;3.80;;;3.40;;
12088;SDS011;6107;49.078;8.578;2022-08-25T15:37:34;3.83;;;3.50;;
12088;SDS011;6107;49.078;8.578;2022-08-25T15:40:00;5.57;;;3.75;;
12088;SDS011;6107;49.078;8.578;2022-08-25T15:42:26;6.03;;;3.40;;
12088;SDS011;6107;49.078;8.578;2022-08-25T15:44:52;5.80;;;3.17;;
12088;SDS011;6107;49.078;8.578;2022-08-25T15:47:18;5.53;;;3.63;;
12088;SDS011;6107;49.078;8.578;2022-08-25T15:49:44;3.75;;;3.03;;
12088;SDS011;6107;49.078;8.578;2022-08-25T15:52:09;3.97;;;3.30;;
12088;SDS011;6107;49.078;8.578;2022-08-25T15:54:37;3.70;;;3.25;;
12088;SDS011;6107;49.078;8.578;2022-08-25T15:57:03;5.38;;;3.55;;
12088;SDS011;6107;49.078;8.578;2022-08-25T15:59:28;4.80;;;3.30;;
12088;SDS011;6107;49.078;8.578;2022-08-25T16:01:54;3.45;;;3.15;;
12088;SDS011;6107;49.078;8.578;2022-08-25T16:04:21;4.97;;;3.70;;
12088;SDS011;6107;49.078;8.578;2022-08-25T16:06:48;4.95;;;3.50;;
12088;SDS011;6107;49.078;8.578;2022-08-25T16:09:14;3.55;;;3.25;;
12088;SDS011;6107;49.078;8.578;2022-08-25T16:11:39;5.57;;;3.67;;
12088;SDS011;6107;49.078;8.578;2022-08-25T16:14:07;5.25;;;3.63;;
12088;SDS011;6107;49.078;8.578;2022-08-25T16:16:33;4.68;;;3.50;;
12088;SDS011;6107;49.078;8.578;2022-08-25T16:18:58;3.85;;;3.33;;
12088;SDS011;6107;49.078;8.578;2022-08-25T16:21:26;4.70;;;3.40;;
12088;SDS011;6107;49.078;8.578;2022-08-25T16:23:59;3.58;;;3.20;;
12088;SDS011;6107;49.078;8.578;2022-08-25T16:26:26;4.72;;;3.40;;
12088;SDS011;6107;49.078;8.578;2022-08-25T16:28:53;3.83;;;3.47;;
12088;SDS011;6107;49.078;8.578;2022-08-25T16:31:18;3.45;;;3.15;;
12088;SDS011;6107;49.078;8.578;2022-08-25T16:33:44;4.28;;;3.45;;
12088;SDS011;6107;49.078;8.578;2022-08-25T16:36:12;4.43;;;3.30;;
12088;SDS011;6107;49.078;8.578;2022-08-25T16:38:48;3.60;;;3.30;;
12088;SDS011;6107;49.078;8.578;2022-08-25T16:41:16;3.88;;;3.10;;
12088;SDS011;6107;49.078;8.578;2022-08-25T16:43:46;3.67;;;3.13;;
12088;SDS011;6107;49.078;8.578;2022-08-25T16:46:13;4.20;;;3.30;;
12088;SDS011;6107;49.078;8.578;2022-08-25T16:48:40;3.92;;;3.53;;
12088;SDS011;6107;49.078;8.578;2022-08-25T16:51:06;3.92;;;3.47;;
12088;SDS011;6107;49.078;8.578;2022-08-25T16:53:33;6.00;;;3.50;;